Time;durP1;ratioP1;P1;durP2;ratioP2;P2;SDS_P1;SDS_P2;PMS_P1;PMS_P2;Temp;Humidity;BMP_temperature;BMP_pressure;BME280_temperature;BME280_humidity;BME280_pressure;Samples;Min_cycle;Max_cycle;Signal;HPM_P1;HPM_P2
2021/09/26 00:00:15;;;;;;;22.23;17.95;;;;;;;;;;5017430;28;20240;-83
2021/09/26 00:02:42;;;;;;;26.08;18.15;;;;;;;;;;5020547;28;20046;-83
2021/09/26 00:05:11;;;;;;;26.08;18.42;;;;;;;;;;5017136;28;20065;-84
2021/09/26 00:07:38;;;;;;;24.95;17.65;;;;;;;;;;5016788;28;20077;-84
2021/09/26 00:10:13;;;;;;;22.90;17.98;;;;;;;;;;5016924;28;20050;-84
2021/09/26 00:12:40;;;;;;;27.42;18.40;;;;;;;;;;5016542;28;20138;-83
2021/09/26 00:15:11;;;;;;;24.35;18.33;;;;;;;;;;5015838;28;20049;-84
2021/09/26 00:17:38;;;;;;;24.75;17.02;;;;;;;;;;5017512;28;20057;-84
2021/09/26 00:20:07;;;;;;;27.45;19.10;;;;;;;;;;5018335;28;20072;-84
2021/09/26 00:22:41;;;;;;;27.38;18.70;;;;;;;;;;5017358;28;20057;-84
2021/09/26 00:25:12;;;;;;;25.63;19.23;;;;;;;;;;5017715;28;20054;-84
2021/09/26 00:27:39;;;;;;;27.38;19.58;;;;;;;;;;5017185;28;20064;-83
2021/09/26 00:30:08;;;;;;;24.77;18.92;;;;;;;;;;5019337;28;20402;-83
2021/09/26 00:32:36;;;;;;;35.42;23.58;;;;;;;;;;5021684;28;20050;-83
2021/09/26 00:35:03;;;;;;;29.77;21.40;;;;;;;;;;5021112;28;20069;-84
2021/09/26 00:37:31;;;;;;;31.73;22.40;;;;;;;;;;5021389;28;20042;-83
2021/09/26 00:39:57;;;;;;;33.88;24.50;;;;;;;;;;5020079;28;20116;-84
2021/09/26 00:42:26;;;;;;;29.75;22.90;;;;;;;;;;5019448;28;20524;-84
2021/09/26 00:44:53;;;;;;;27.90;20.38;;;;;;;;;;5019148;28;20687;-84
2021/09/26 00:47:20;;;;;;;25.95;19.48;;;;;;;;;;5019084;28;20061;-84
2021/09/26 00:49:47;;;;;;;25.42;18.45;;;;;;;;;;5024283;28;20037;-83
2021/09/26 00:52:14;;;;;;;25.52;19.05;;;;;;;;;;5041096;28;20050;-84
2021/09/26 00:54:41;;;;;;;24.63;18.15;;;;;;;;;;5031439;28;20053;-84
2021/09/26 00:57:08;;;;;;;25.63;18.67;;;;;;;;;;5023056;28;20057;-84
2021/09/26 00:59:37;;;;;;;25.60;18.70;;;;;;;;;;5023244;28;20504;-84
2021/09/26 01:02:04;;;;;;;27.27;19.13;;;;;;;;;;5028216;28;20054;-84
2021/09/26 01:04:32;;;;;;;28.27;19.02;;;;;;;;;;5026635;28;20050;-83
2021/09/26 01:07:12;;;;;;;21.45;16.85;;;;;;;;;;5027223;28;20056;-84
2021/09/26 01:09:44;;;;;;;23.17;18.23;;;;;;;;;;5024256;28;20054;-82
2021/09/26 01:12:15;;;;;;;21.98;16.83;;;;;;;;;;5022206;28;20050;-84
2021/09/26 01:14:51;;;;;;;19.10;15.88;;;;;;;;;;5022284;28;20389;-83
2021/09/26 01:17:24;;;;;;;19.70;14.75;;;;;;;;;;5021372;28;20061;-84
2021/09/26 01:20:13;;;;;;;19.85;14.00;;;;;;;;;;5020982;28;20054;-84
2021/09/26 01:23:00;;;;;;;20.70;13.40;;;;;;;;;;5024710;28;20054;-84
2021/09/26 01:25:52;;;;;;;19.40;13.23;;;;;;;;;;5024275;28;20473;-84
2021/09/26 01:28:33;;;;;;;17.02;11.93;;;;;;;;;;5026120;28;20056;-84
2021/09/26 01:31:05;;;;;;;20.42;14.35;;;;;;;;;;5025344;28;20057;-84
2021/09/26 01:33:36;;;;;;;18.17;13.50;;;;;;;;;;5021469;28;20046;-84
2021/09/26 01:36:09;;;;;;;16.45;12.73;;;;;;;;;;5022722;28;20058;-83
2021/09/26 01:38:43;;;;;;;18.85;13.15;;;;;;;;;;5021792;28;20500;-83
2021/09/26 01:41:21;;;;;;;17.73;11.88;;;;;;;;;;5020754;28;20046;-83
2021/09/26 01:43:50;;;;;;;20.80;12.82;;;;;;;;;;5021883;28;20077;-84
2021/09/26 01:46:24;;;;;;;15.73;11.82;;;;;;;;;;5030695;28;20054;-83
2021/09/26 01:49:01;;;;;;;15.13;10.95;;;;;;;;;;5031051;28;20054;-84
2021/09/26 01:51:29;;;;;;;13.13;10.35;;;;;;;;;;5030352;28;20096;-83
2021/09/26 01:53:57;;;;;;;13.98;10.38;;;;;;;;;;5031735;28;20054;-83
2021/09/26 01:56:25;;;;;;;12.57;10.02;;;;;;;;;;5033573;28;20072;-83
2021/09/26 01:58:55;;;;;;;15.63;10.45;;;;;;;;;;5031444;28;20069;-83
2021/09/26 02:01:23;;;;;;;;;;;;;;;;;;5036173;28;20050;-82
2021/09/26 02:03:52;;;;;;;14.13;10.52;;;;;;;;;;5039610;28;19909;-83
2021/09/26 02:06:19;;;;;;;14.23;10.70;;;;;;;;;;5040244;28;20046;-83
2021/09/26 02:08:47;;;;;;;14.15;10.27;;;;;;;;;;5040010;28;20033;-84
2021/09/26 02:11:15;;;;;;;16.20;10.90;;;;;;;;;;5033668;28;20057;-82
2021/09/26 02:13:43;;;;;;;14.25;10.35;;;;;;;;;;5026460;28;20049;-83
2021/09/26 02:16:11;;;;;;;14.13;10.70;;;;;;;;;;5021284;28;20104;-84
2021/09/26 02:18:41;;;;;;;14.38;10.32;;;;;;;;;;5026491;28;20056;-83
2021/09/26 02:21:09;;;;;;;13.18;10.35;;;;;;;;;;5020798;28;20069;-83
2021/09/26 02:23:37;;;;;;;14.90;11.13;;;;;;;;;;5019453;28;20054;-84
2021/09/26 02:26:05;;;;;;;15.20;10.05;;;;;;;;;;5019468;28;20050;-84
2021/09/26 02:28:33;;;;;;;14.82;10.38;;;;;;;;;;5019455;28;20115;-83
2021/09/26 02:31:02;;;;;;;13.45;10.80;;;;;;;;;;5019341;28;20050;-83
2021/09/26 02:33:29;;;;;;;15.63;10.73;;;;;;;;;;5019180;28;20050;-83
2021/09/26 02:35:58;;;;;;;15.30;10.65;;;;;;;;;;5019147;28;20054;-83
2021/09/26 02:38:25;;;;;;;15.98;11.02;;;;;;;;;;5020040;28;20156;-84
2021/09/26 02:44:37;;;;;;;12.95;10.02;;;;;;;;;;4995397;28;20189;-90
2021/09/26 02:47:18;;;;;;;13.20;9.63;;;;;;;;;;4996227;28;20421;-89
2021/09/26 02:49:58;;;;;;;16.63;10.25;;;;;;;;;;4994865;28;20059;-89
2021/09/26 08:20:51;;;;;;;16.60;7.53;;;;;;;;;;5125807;27;20381;-69
2021/09/26 08:23:18;;;;;;;16.00;7.45;;;;;;;;;;5109907;28;20052;-69
2021/09/26 08:25:45;;;;;;;19.55;9.00;;;;;;;;;;5109849;28;20087;-68
2021/09/26 08:28:13;;;;;;;19.42;9.23;;;;;;;;;;5109902;28;20492;-69
2021/09/26 08:30:40;;;;;;;13.27;7.47;;;;;;;;;;5109761;28;20638;-69
2021/09/26 08:33:07;;;;;;;13.52;6.95;;;;;;;;;;5109433;28;20097;-66
2021/09/26 08:35:37;;;;;;;11.93;6.05;;;;;;;;;;5109400;28;20052;-67
2021/09/26 08:38:08;;;;;;;14.90;6.80;;;;;;;;;;5109578;28;20048;-68
2021/09/26 08:40:38;;;;;;;11.57;7.50;;;;;;;;;;5109511;28;20304;-68
2021/09/26 08:43:05;;;;;;;19.37;6.27;;;;;;;;;;5109509;28;20056;-70
2021/09/26 08:45:39;;;;;;;11.02;5.50;;;;;;;;;;5123724;22;20044;-84
2021/09/26 08:48:09;;;;;;;10.50;6.00;;;;;;;;;;5073142;28;20454;-86
2021/09/26 08:50:38;;;;;;;11.52;6.32;;;;;;;;;;5071694;28;20067;-86
2021/09/26 08:53:08;;;;;;;12.45;6.55;;;;;;;;;;5071136;28;20064;-86
2021/09/26 08:55:35;;;;;;;;;;;;;;;;;;5062377;28;20049;-86
2021/09/26 08:58:03;;;;;;;14.68;5.72;;;;;;;;;;5054192;28;20352;-87
2021/09/26 09:00:30;;;;;;;14.10;6.85;;;;;;;;;;5050780;28;20049;-87
2021/09/26 09:02:58;;;;;;;12.15;5.80;;;;;;;;;;5054530;28;20042;-84
2021/09/26 09:05:30;;;;;;;14.45;6.75;;;;;;;;;;5054324;28;20120;-84
2021/09/26 09:08:13;;;;;;;11.32;7.03;;;;;;;;;;5052617;28;20483;-82
2021/09/26 09:10:49;;;;;;;11.02;5.57;;;;;;;;;;5052843;28;20080;-85
2021/09/26 09:13:19;;;;;;;14.45;8.35;;;;;;;;;;5052366;28;20124;-85
2021/09/26 09:15:55;;;;;;;10.52;5.63;;;;;;;;;;5052635;28;20061;-84
2021/09/26 09:18:23;;;;;;;16.98;6.28;;;;;;;;;;5053567;28;20048;-84
2021/09/26 09:20:50;;;;;;;10.20;6.82;;;;;;;;;;5052803;28;20049;-84
2021/09/26 09:23:20;;;;;;;11.45;6.03;;;;;;;;;;5051969;28;20052;-85
2021/09/26 09:25:48;;;;;;;8.73;4.97;;;;;;;;;;5052230;28;20052;-85
2021/09/26 09:28:20;;;;;;;14.63;7.75;;;;;;;;;;5052302;28;20049;-84
2021/09/26 09:30:49;;;;;;;13.85;9.05;;;;;;;;;;5051527;28;20056;-85
2021/09/26 09:33:17;;;;;;;17.77;10.10;;;;;;;;;;5050369;28;20041;-85
2021/09/26 09:35:46;;;;;;;14.75;7.88;;;;;;;;;;5038253;28;20050;-84
2021/09/26 09:38:16;;;;;;;10.77;6.30;;;;;;;;;;5032921;28;20069;-83
2021/09/26 09:40:45;;;;;;;10.27;5.60;;;;;;;;;;5036927;28;20072;-84
2021/09/26 09:43:12;;;;;;;9.13;5.53;;;;;;;;;;5036675;28;20050;-84
2021/09/26 09:45:47;;;;;;;9.65;5.60;;;;;;;;;;5036452;28;20053;-82
2021/09/26 09:48:17;;;;;;;12.77;6.25;;;;;;;;;;5035753;28;20053;-82
2021/09/26 09:50:56;;;;;;;10.10;6.43;;;;;;;;;;5035212;28;20046;-83
2021/09/26 09:53:29;;;;;;;11.57;6.22;;;;;;;;;;5035443;28;20118;-84
2021/09/26 09:56:04;;;;;;;12.18;5.22;;;;;;;;;;5035144;28;20049;-82
2021/09/26 09:58:44;;;;;;;10.63;7.18;;;;;;;;;;5045939;28;20049;-84
2021/09/26 10:01:13;;;;;;;18.48;7.35;;;;;;;;;;5046372;28;20046;-84
2021/09/26 10:03:49;;;;;;;10.00;4.72;;;;;;;;;;5043243;28;20060;-84
2021/09/26 10:06:37;;;;;;;9.35;5.18;;;;;;;;;;5047971;28;20046;-85
2021/09/26 10:09:23;;;;;;;11.82;5.45;;;;;;;;;;5045831;28;20052;-85
2021/09/26 10:11:54;;;;;;;11.73;5.72;;;;;;;;;;5050433;28;20108;-83
2021/09/26 10:14:22;;;;;;;12.23;5.38;;;;;;;;;;5039395;28;20053;-85
2021/09/26 10:16:50;;;;;;;14.73;7.20;;;;;;;;;;5039755;28;20128;-85
2021/09/26 10:19:21;;;;;;;10.80;5.97;;;;;;;;;;5040638;28;20045;-85
2021/09/26 10:21:47;;;;;;;;;;;;;;;;;;5058107;28;20038;-84
2021/09/26 10:24:15;;;;;;;9.05;5.38;;;;;;;;;;5053974;28;19932;-85
2021/09/26 10:26:45;;;;;;;10.80;6.05;;;;;;;;;;5039681;28;20049;-86
2021/09/26 10:29:17;;;;;;;11.15;5.47;;;;;;;;;;5042424;28;20479;-86
2021/09/26 10:31:51;;;;;;;13.38;5.95;;;;;;;;;;5039256;28;20047;-85
2021/09/26 10:34:21;;;;;;;14.32;7.72;;;;;;;;;;5040433;28;20057;-85
2021/09/26 10:36:49;;;;;;;10.85;5.78;;;;;;;;;;5046546;28;20049;-86
2021/09/26 10:39:24;;;;;;;13.95;5.55;;;;;;;;;;5045764;28;20105;-85
2021/09/26 10:42:09;;;;;;;16.40;5.80;;;;;;;;;;5043838;28;20054;-86
2021/09/26 10:44:41;;;;;;;15.20;5.60;;;;;;;;;;5047565;28;20050;-85
2021/09/26 10:47:15;;;;;;;11.52;5.40;;;;;;;;;;5049521;28;20068;-85
2021/09/26 10:49:45;;;;;;;12.00;6.30;;;;;;;;;;5039312;28;20057;-85
2021/09/26 10:52:27;;;;;;;13.47;6.33;;;;;;;;;;5041157;28;20045;-86
2021/09/26 10:54:55;;;;;;;12.00;6.22;;;;;;;;;;5039202;28;20287;-84
2021/09/26 10:57:31;;;;;;;12.85;6.90;;;;;;;;;;5027625;28;20042;-85
2021/09/26 11:00:02;;;;;;;17.00;7.47;;;;;;;;;;5034137;28;20053;-86
2021/09/26 11:02:53;;;;;;;17.55;9.07;;;;;;;;;;5038691;28;20030;-84
2021/09/26 11:05:35;;;;;;;11.07;7.22;;;;;;;;;;5038224;28;20034;-85
2021/09/26 11:08:15;;;;;;;10.60;5.97;;;;;;;;;;5028527;28;20417;-85
2021/09/26 11:10:44;;;;;;;;;;;;;;;;;;5019635;28;20062;-84
2021/09/26 11:13:18;;;;;;;13.25;6.05;;;;;;;;;;5021486;28;19932;-85
2021/09/26 11:16:16;;;;;;;10.40;5.10;;;;;;;;;;5017293;28;20089;-85
2021/09/26 11:19:02;;;;;;;12.23;5.40;;;;;;;;;;5017960;28;20145;-85
2021/09/26 11:22:04;;;;;;;9.88;5.45;;;;;;;;;;5020755;28;20172;-85
2021/09/26 11:25:00;;;;;;;13.88;5.85;;;;;;;;;;5020961;28;20500;-85
2021/09/26 11:27:49;;;;;;;12.07;5.63;;;;;;;;;;5017845;28;20054;-85
2021/09/26 11:30:20;;;;;;;9.07;5.35;;;;;;;;;;5020560;28;20052;-85
2021/09/26 11:33:08;;;;;;;9.70;5.40;;;;;;;;;;5020926;28;20137;-84
2021/09/26 11:35:38;;;;;;;10.48;5.30;;;;;;;;;;5017977;28;20125;-84
2021/09/26 11:38:08;;;;;;;15.80;6.63;;;;;;;;;;5017221;28;20058;-85
2021/09/26 11:41:09;;;;;;;13.15;6.07;;;;;;;;;;5022369;28;20046;-85
2021/09/26 11:43:39;;;;;;;12.93;6.05;;;;;;;;;;4975483;28;20058;-85
2021/09/26 11:46:20;;;;;;;;;;;;;;;;;;4982120;28;20053;-86
2021/09/26 11:48:49;;;;;;;12.25;5.82;;;;;;;;;;5002540;28;19925;-85
2021/09/26 11:51:31;;;;;;;14.55;6.00;;;;;;;;;;5024576;28;20070;-85
2021/09/26 11:54:08;;;;;;;13.40;6.45;;;;;;;;;;5033461;28;20050;-85
2021/09/26 11:56:37;;;;;;;14.10;6.45;;;;;;;;;;5021745;28;20100;-85
2021/09/26 11:59:06;;;;;;;14.80;6.60;;;;;;;;;;5017502;28;20056;-85
2021/09/26 12:01:37;;;;;;;12.65;5.68;;;;;;;;;;5015321;28;20050;-85
2021/09/26 12:04:12;;;;;;;14.23;6.32;;;;;;;;;;5017404;28;20054;-85
2021/09/26 12:06:40;;;;;;;13.32;5.63;;;;;;;;;;5018405;28;20050;-85
2021/09/26 12:09:10;;;;;;;13.55;6.50;;;;;;;;;;5016533;28;20053;-85
2021/09/26 12:11:50;;;;;;;9.55;6.18;;;;;;;;;;5019451;28;20046;-85
2021/09/26 12:14:38;;;;;;;13.40;6.90;;;;;;;;;;5028579;28;20042;-85
2021/09/26 12:17:08;;;;;;;13.88;6.85;;;;;;;;;;5029755;28;20085;-85
2021/09/26 12:19:47;;;;;;;18.90;7.97;;;;;;;;;;5033262;28;20042;-85
2021/09/26 12:22:17;;;;;;;17.23;7.67;;;;;;;;;;5032242;28;20429;-85
2021/09/26 12:24:53;;;;;;;18.98;9.88;;;;;;;;;;5032454;28;20057;-83
2021/09/26 12:27:27;;;;;;;16.38;7.53;;;;;;;;;;5034490;28;20046;-84
2021/09/26 12:29:58;;;;;;;18.90;7.70;;;;;;;;;;5035978;28;20057;-83
2021/09/26 12:32:31;;;;;;;21.40;9.82;;;;;;;;;;5030825;28;20049;-84
2021/09/26 12:35:01;;;;;;;13.60;7.07;;;;;;;;;;5030971;28;20050;-85
2021/09/26 12:37:30;;;;;;;;;;;;;;;;;;5030743;28;20042;-85
2021/09/26 12:40:01;;;;;;;13.37;7.17;;;;;;;;;;5031024;28;19922;-86
2021/09/26 12:42:30;;;;;;;17.17;7.78;;;;;;;;;;5029461;28;20050;-84
2021/09/26 12:44:57;;;;;;;12.15;7.25;;;;;;;;;;5028817;28;20109;-85
2021/09/26 12:47:30;;;;;;;15.48;7.45;;;;;;;;;;5025441;28;20046;-84
2021/09/26 12:49:59;;;;;;;13.15;7.40;;;;;;;;;;5023451;28;20050;-85
2021/09/26 12:52:29;;;;;;;16.25;9.15;;;;;;;;;;5035983;28;20041;-85
2021/09/26 12:54:58;;;;;;;;;;;;;;;;;;5036957;28;20140;-85
2021/09/26 12:57:28;;;;;;;16.27;8.27;;;;;;;;;;5041457;28;20020;-85
2021/09/26 13:00:19;;;;;;;16.85;8.48;;;;;;;;;;5043624;28;20340;-85
2021/09/26 13:02:52;;;;;;;13.32;9.13;;;;;;;;;;5045615;28;20060;-86
2021/09/26 13:05:29;;;;;;;13.60;8.20;;;;;;;;;;5046977;28;20049;-86
2021/09/26 13:08:06;;;;;;;12.15;7.82;;;;;;;;;;5048978;28;20060;-84
2021/09/26 13:10:34;;;;;;;14.48;8.38;;;;;;;;;;5040383;28;20058;-85
2021/09/26 13:13:14;;;;;;;15.50;7.82;;;;;;;;;;5038201;28;20056;-84
2021/09/26 13:15:44;;;;;;;;;;;;;;;;;;5045388;28;20061;-84
2021/09/26 13:18:18;;;;;;;10.30;7.50;;;;;;;;;;5046331;28;19971;-85
2021/09/26 13:21:07;;;;;;;15.05;8.02;;;;;;;;;;5043536;28;20494;-85
2021/09/26 13:23:35;;;;;;;12.45;7.38;;;;;;;;;;5043419;28;20041;-85
2021/09/26 13:26:05;;;;;;;16.35;6.95;;;;;;;;;;5043081;28;20053;-84
2021/09/26 13:28:34;;;;;;;11.25;6.40;;;;;;;;;;5040741;28;20060;-85
2021/09/26 13:31:14;;;;;;;15.95;7.75;;;;;;;;;;5046453;28;20053;-85
2021/09/26 13:33:43;;;;;;;16.15;7.82;;;;;;;;;;5047011;28;20083;-85
2021/09/26 13:36:14;;;;;;;13.57;7.43;;;;;;;;;;5038608;28;20045;-84
2021/09/26 13:38:54;;;;;;;13.18;7.75;;;;;;;;;;5038848;28;20064;-84
2021/09/26 13:41:41;;;;;;;12.90;7.68;;;;;;;;;;5038388;28;20052;-85
2021/09/26 13:44:19;;;;;;;18.35;8.50;;;;;;;;;;5038915;28;20049;-85
2021/09/26 13:46:47;;;;;;;23.58;10.13;;;;;;;;;;5040587;28;20053;-84
2021/09/26 13:49:14;;;;;;;12.32;7.18;;;;;;;;;;5042327;28;20515;-84
2021/09/26 13:51:44;;;;;;;14.18;7.45;;;;;;;;;;5041787;28;20198;-85
2021/09/26 13:54:11;;;;;;;15.88;9.27;;;;;;;;;;5046283;28;20057;-84
2021/09/26 13:56:41;;;;;;;16.40;9.55;;;;;;;;;;5048612;28;20076;-85
2021/09/26 13:59:08;;;;;;;17.35;9.18;;;;;;;;;;5046665;28;20080;-85
2021/09/26 14:01:36;;;;;;;16.77;8.32;;;;;;;;;;5045284;28;20100;-84
2021/09/26 14:04:04;;;;;;;16.80;7.80;;;;;;;;;;5039320;28;20124;-85
2021/09/26 14:06:32;;;;;;;18.50;8.20;;;;;;;;;;5039467;28;20053;-85
2021/09/26 14:08:59;;;;;;;15.43;8.38;;;;;;;;;;5039568;28;20468;-85
2021/09/26 14:11:26;;;;;;;13.68;7.72;;;;;;;;;;5038139;28;20049;-85
2021/09/26 14:13:54;;;;;;;13.20;7.65;;;;;;;;;;5044560;28;20053;-84
2021/09/26 14:16:21;;;;;;;16.40;7.28;;;;;;;;;;5040549;28;20060;-84
2021/09/26 14:18:49;;;;;;;14.35;8.25;;;;;;;;;;5040159;28;20508;-84
2021/09/26 14:21:19;;;;;;;18.33;7.55;;;;;;;;;;5046013;28;20093;-84
2021/09/26 14:23:47;;;;;;;13.82;9.13;;;;;;;;;;5057957;28;20045;-85
2021/09/26 14:26:14;;;;;;;15.32;9.70;;;;;;;;;;5058947;28;20054;-85
2021/09/26 14:28:41;;;;;;;17.88;9.52;;;;;;;;;;5058564;28;20117;-85
2021/09/26 14:31:10;;;;;;;14.77;8.32;;;;;;;;;;5052017;28;20064;-85
2021/09/26 14:33:38;;;;;;;16.05;8.20;;;;;;;;;;5040628;28;20072;-85
2021/09/26 14:36:07;;;;;;;17.85;8.48;;;;;;;;;;5040216;28;20419;-85
2021/09/26 14:38:36;;;;;;;20.17;9.82;;;;;;;;;;5039208;28;20092;-85
2021/09/26 14:41:04;;;;;;;17.48;9.05;;;;;;;;;;5041175;28;20049;-84
2021/09/26 14:43:31;;;;;;;17.70;8.05;;;;;;;;;;5039056;28;20046;-84
2021/09/26 14:45:58;;;;;;;20.00;9.73;;;;;;;;;;5080238;22;20045;-67
2021/09/26 14:48:26;;;;;;;15.93;9.60;;;;;;;;;;5071452;28;20118;-68
2021/09/26 14:50:53;;;;;;;28.65;15.90;;;;;;;;;;5059651;28;20140;-66
2021/09/26 14:53:22;;;;;;;17.42;9.98;;;;;;;;;;5052752;28;20049;-68
2021/09/26 14:55:49;;;;;;;20.08;13.77;;;;;;;;;;5052944;28;20124;-68
2021/09/26 14:58:16;;;;;;;18.58;10.32;;;;;;;;;;5052931;28;20053;-67
2021/09/26 15:00:45;;;;;;;21.60;12.07;;;;;;;;;;5052391;28;20417;-68
2021/09/26 15:03:16;;;;;;;31.77;15.05;;;;;;;;;;5052428;28;20087;-69
2021/09/26 15:05:43;;;;;;;23.98;15.60;;;;;;;;;;5052711;28;20417;-67
2021/09/26 15:08:20;;;;;;;25.33;15.75;;;;;;;;;;5052379;28;20071;-68
2021/09/26 15:10:59;;;;;;;25.10;15.43;;;;;;;;;;5052514;28;20045;-67
2021/09/26 15:13:26;;;;;;;22.67;14.23;;;;;;;;;;5052046;28;20053;-67
2021/09/26 15:15:53;;;;;;;27.83;15.05;;;;;;;;;;5052624;28;20131;-68
2021/09/26 15:18:21;;;;;;;27.35;17.35;;;;;;;;;;5052398;28;20074;-70
2021/09/26 15:20:50;;;;;;;26.02;16.35;;;;;;;;;;5052072;28;20116;-68
2021/09/26 15:23:18;;;;;;;24.33;15.70;;;;;;;;;;5051928;28;20049;-68
2021/09/26 15:25:45;;;;;;;25.83;16.05;;;;;;;;;;5052049;28;20417;-69
2021/09/26 15:28:13;;;;;;;23.85;15.40;;;;;;;;;;5051534;28;20045;-68
2021/09/26 15:30:40;;;;;;;20.13;13.77;;;;;;;;;;5052338;28;20452;-68
2021/09/26 15:33:08;;;;;;;22.40;15.52;;;;;;;;;;5051808;28;20044;-68
2021/09/26 15:35:35;;;;;;;24.73;14.43;;;;;;;;;;5052016;28;20045;-67
2021/09/26 15:38:02;;;;;;;21.38;15.43;;;;;;;;;;5051965;28;20060;-67
2021/09/26 15:40:31;;;;;;;25.00;15.95;;;;;;;;;;5051924;28;20529;-69
2021/09/26 15:42:59;;;;;;;23.80;15.48;;;;;;;;;;5051653;28;20049;-68
2021/09/26 15:45:32;;;;;;;23.63;16.05;;;;;;;;;;5051555;28;20049;-67
2021/09/26 15:48:00;;;;;;;29.35;18.73;;;;;;;;;;5051710;28;20049;-69
2021/09/26 15:50:30;;;;;;;36.30;22.65;;;;;;;;;;5051591;28;20406;-68
2021/09/26 15:52:57;;;;;;;;;;;;;;;;;;5052320;28;20045;-67
2021/09/26 15:55:25;;;;;;;25.70;16.08;;;;;;;;;;5045617;28;19921;-68
2021/09/26 15:57:52;;;;;;;23.33;15.55;;;;;;;;;;5031527;28;20414;-68
2021/09/26 16:00:22;;;;;;;22.15;15.40;;;;;;;;;;5031658;28;20128;-68
2021/09/26 16:02:51;;;;;;;27.77;17.95;;;;;;;;;;5031483;28;20132;-68
2021/09/26 16:05:22;;;;;;;26.80;16.58;;;;;;;;;;5031036;28;20095;-70
2021/09/26 16:07:49;;;;;;;25.73;16.73;;;;;;;;;;5031694;28;20060;-67
2021/09/26 16:10:16;;;;;;;30.50;18.85;;;;;;;;;;5031602;28;20053;-67
2021/09/26 16:12:44;;;;;;;23.40;15.43;;;;;;;;;;5031790;28;20490;-67
2021/09/26 16:15:15;;;;;;;29.50;19.27;;;;;;;;;;5030996;28;20045;-67
2021/09/26 16:17:42;;;;;;;27.42;17.20;;;;;;;;;;5031179;28;20045;-68
2021/09/26 16:20:15;;;;;;;25.08;15.23;;;;;;;;;;5031104;28;20041;-68
2021/09/26 16:22:44;;;;;;;24.90;16.45;;;;;;;;;;5031253;28;20049;-67
2021/09/26 16:25:12;;;;;;;24.02;16.30;;;;;;;;;;5031246;28;20041;-69
2021/09/26 16:27:40;;;;;;;25.08;18.17;;;;;;;;;;5031869;28;20042;-67
2021/09/26 16:30:09;;;;;;;24.60;17.33;;;;;;;;;;5031112;28;20099;-68
2021/09/26 16:32:36;;;;;;;28.77;17.85;;;;;;;;;;5031392;28;20053;-67
2021/09/26 16:35:04;;;;;;;25.10;16.90;;;;;;;;;;5030980;28;20499;-69
2021/09/26 16:37:32;;;;;;;24.75;18.08;;;;;;;;;;5031410;28;20494;-66
2021/09/26 16:39:59;;;;;;;28.77;19.55;;;;;;;;;;5031179;28;20095;-67
2021/09/26 16:42:26;;;;;;;28.60;18.42;;;;;;;;;;5035001;28;20430;-67
2021/09/26 16:44:54;;;;;;;23.15;16.80;;;;;;;;;;5034880;28;20046;-68
2021/09/26 16:47:21;;;;;;;20.92;14.52;;;;;;;;;;5035653;28;20053;-67
2021/09/26 16:49:48;;;;;;;22.30;13.32;;;;;;;;;;5035150;28;20103;-67
2021/09/26 16:52:15;;;;;;;25.25;16.65;;;;;;;;;;5035268;28;20064;-67
2021/09/26 16:54:46;;;;;;;27.60;16.42;;;;;;;;;;5034906;28;20051;-68
2021/09/26 16:57:13;;;;;;;22.25;15.75;;;;;;;;;;5035275;28;20384;-67
2021/09/26 16:59:40;;;;;;;24.17;14.48;;;;;;;;;;5035029;28;20405;-68
2021/09/26 17:02:07;;;;;;;22.38;14.85;;;;;;;;;;5035160;28;20081;-67
2021/09/26 17:04:36;;;;;;;22.60;14.95;;;;;;;;;;5034522;28;20052;-69
2021/09/26 17:07:03;;;;;;;20.35;13.55;;;;;;;;;;5035171;28;20095;-67
2021/09/26 17:09:31;;;;;;;16.88;12.68;;;;;;;;;;5034484;28;20045;-68
2021/09/26 17:11:59;;;;;;;18.95;13.45;;;;;;;;;;5035222;28;20056;-67
2021/09/26 17:14:26;;;;;;;21.13;13.43;;;;;;;;;;5034450;28;20049;-69
2021/09/26 17:16:56;;;;;;;20.23;13.85;;;;;;;;;;5034809;28;20052;-67
2021/09/26 17:19:25;;;;;;;21.75;13.20;;;;;;;;;;5034636;28;20048;-69
2021/09/26 17:21:55;;;;;;;22.33;12.55;;;;;;;;;;5034727;28;20419;-67
2021/09/26 17:24:25;;;;;;;19.45;12.98;;;;;;;;;;5034300;28;20485;-68
2021/09/26 17:26:56;;;;;;;20.67;13.05;;;;;;;;;;5035043;28;20068;-67
2021/09/26 17:29:24;;;;;;;;;;;;;;;;;;5034940;28;20087;-67
2021/09/26 17:31:51;;;;;;;25.63;15.85;;;;;;;;;;5034672;28;20374;-68
2021/09/26 17:34:18;;;;;;;22.45;13.77;;;;;;;;;;5034161;28;20124;-68
2021/09/26 17:36:45;;;;;;;19.73;12.45;;;;;;;;;;5034576;28;20042;-67
2021/09/26 17:39:14;;;;;;;20.33;13.00;;;;;;;;;;5034202;28;20053;-67
2021/09/26 17:41:42;;;;;;;17.38;12.13;;;;;;;;;;5034357;28;20136;-68
2021/09/26 17:44:09;;;;;;;21.08;13.07;;;;;;;;;;5034210;28;20490;-68
2021/09/26 17:46:39;;;;;;;18.13;13.00;;;;;;;;;;5034074;28;20057;-68
2021/09/26 17:49:06;;;;;;;31.83;22.20;;;;;;;;;;5033997;28;20077;-69
2021/09/26 17:51:34;;;;;;;26.33;17.70;;;;;;;;;;5033603;28;20053;-68
2021/09/26 17:54:04;;;;;;;24.52;15.15;;;;;;;;;;5034252;28;20096;-68
2021/09/26 17:56:33;;;;;;;19.52;12.90;;;;;;;;;;5049484;28;20491;-68
2021/09/26 17:59:03;;;;;;;19.42;12.48;;;;;;;;;;5054104;28;20045;-68
2021/09/26 18:01:33;;;;;;;23.15;15.07;;;;;;;;;;5053814;28;20489;-69
2021/09/26 18:04:02;;;;;;;22.73;14.95;;;;;;;;;;5053948;28;20646;-67
2021/09/26 18:06:30;;;;;;;23.77;14.88;;;;;;;;;;5053900;28;20044;-68
2021/09/26 18:08:57;;;;;;;26.98;17.70;;;;;;;;;;5054326;28;20099;-69
2021/09/26 18:11:25;;;;;;;26.92;19.25;;;;;;;;;;5053566;28;20055;-68
2021/09/26 18:13:56;;;;;;;20.55;13.38;;;;;;;;;;5053606;28;20055;-66
2021/09/26 18:16:25;;;;;;;20.25;12.55;;;;;;;;;;5053736;28;20049;-66
2021/09/26 18:18:52;;;;;;;19.30;11.57;;;;;;;;;;5053528;28;20123;-67
2021/09/26 18:21:22;;;;;;;21.50;13.13;;;;;;;;;;5053653;28;20052;-67
2021/09/26 18:23:53;;;;;;;19.00;13.30;;;;;;;;;;5053253;28;20489;-67
2021/09/26 18:26:24;;;;;;;18.58;12.27;;;;;;;;;;5053482;28;20131;-67
2021/09/26 18:28:51;;;;;;;22.10;14.43;;;;;;;;;;5053455;28;20387;-67
2021/09/26 18:31:18;;;;;;;33.03;19.10;;;;;;;;;;5053301;28;20132;-67
2021/09/26 18:33:45;;;;;;;41.53;22.75;;;;;;;;;;5052957;28;20051;-66
2021/09/26 18:36:18;;;;;;;22.67;14.43;;;;;;;;;;5053524;28;20473;-67
2021/09/26 18:38:48;;;;;;;24.67;14.93;;;;;;;;;;5053043;28;20049;-66
2021/09/26 18:41:18;;;;;;;23.33;14.55;;;;;;;;;;5053344;28;20055;-67
2021/09/26 18:43:46;;;;;;;20.60;14.18;;;;;;;;;;5053239;28;20321;-68
2021/09/26 18:46:15;;;;;;;20.02;13.38;;;;;;;;;;5053039;28;20052;-66
2021/09/26 18:48:45;;;;;;;20.77;13.30;;;;;;;;;;5053447;28;20080;-67
2021/09/26 18:51:17;;;;;;;17.25;11.77;;;;;;;;;;5053414;28;20052;-67
2021/09/26 18:53:44;;;;;;;20.13;12.48;;;;;;;;;;5053009;28;20465;-67
2021/09/26 18:56:18;;;;;;;21.08;13.88;;;;;;;;;;5040476;28;20054;-66
2021/09/26 18:58:45;;;;;;;17.25;11.77;;;;;;;;;;5033072;28;20465;-67
2021/09/26 19:01:13;;;;;;;20.02;13.02;;;;;;;;;;5033040;28;20300;-67
2021/09/26 19:03:40;;;;;;;20.83;12.55;;;;;;;;;;5031881;28;20068;-68
2021/09/26 19:06:07;;;;;;;23.25;13.52;;;;;;;;;;5032860;28;20486;-67
2021/09/26 19:08:36;;;;;;;23.42;13.13;;;;;;;;;;5032940;28;20077;-68
2021/09/26 19:11:08;;;;;;;19.20;12.35;;;;;;;;;;5032998;28;20491;-67
2021/09/26 19:13:37;;;;;;;18.58;11.18;;;;;;;;;;5032931;28;20420;-67
2021/09/26 19:16:04;;;;;;;17.48;11.82;;;;;;;;;;5032466;28;20049;-66
2021/09/26 19:18:32;;;;;;;20.83;12.98;;;;;;;;;;5032523;28;20475;-67
2021/09/26 19:21:00;;;;;;;25.23;17.38;;;;;;;;;;5032112;28;20042;-67
2021/09/26 19:23:28;;;;;;;20.70;12.68;;;;;;;;;;5032458;28;20514;-67
2021/09/26 19:25:57;;;;;;;19.27;10.88;;;;;;;;;;5032520;28;20049;-67
2021/09/26 19:28:28;;;;;;;19.05;11.05;;;;;;;;;;5032572;28;20132;-68
2021/09/26 19:30:58;;;;;;;17.13;10.25;;;;;;;;;;5032075;28;20060;-68
2021/09/26 19:33:25;;;;;;;17.83;10.93;;;;;;;;;;5032083;28;20685;-68
2021/09/26 19:35:53;;;;;;;18.17;10.65;;;;;;;;;;5032089;28;20053;-67
2021/09/26 19:38:20;;;;;;;17.77;10.52;;;;;;;;;;5032703;28;20059;-70
2021/09/26 19:40:47;;;;;;;21.70;12.85;;;;;;;;;;5032332;28;20063;-69
2021/09/26 19:43:15;;;;;;;224.60;72.30;;;;;;;;;;5032717;28;20418;-67
2021/09/26 19:45:42;;;;;;;67.00;26.67;;;;;;;;;;5032493;28;20103;-68
2021/09/26 19:48:11;;;;;;;42.78;18.45;;;;;;;;;;5032282;28;20048;-70
2021/09/26 19:50:39;;;;;;;86.80;32.03;;;;;;;;;;5031938;28;20045;-73
2021/09/26 19:53:08;;;;;;;117.57;66.72;;;;;;;;;;5032006;28;20042;-69
2021/09/26 19:55:35;;;;;;;53.60;28.25;;;;;;;;;;5039656;28;20051;-68
2021/09/26 19:58:02;;;;;;;39.80;18.77;;;;;;;;;;5051972;28;20055;-68
2021/09/26 20:00:29;;;;;;;34.83;17.73;;;;;;;;;;5051953;28;20140;-68
2021/09/26 20:02:58;;;;;;;27.35;16.35;;;;;;;;;;5052118;28;20055;-68
2021/09/26 20:05:29;;;;;;;29.48;15.75;;;;;;;;;;5052166;28;20136;-73
2021/09/26 20:07:58;;;;;;;28.77;14.35;;;;;;;;;;5052724;28;20099;-67
2021/09/26 20:10:25;;;;;;;27.90;14.85;;;;;;;;;;5052418;28;20145;-68
2021/09/26 20:12:53;;;;;;;32.90;16.20;;;;;;;;;;5052651;28;20049;-68
2021/09/26 20:15:23;;;;;;;27.65;14.57;;;;;;;;;;5051318;28;20099;-67
2021/09/26 20:17:50;;;;;;;24.73;12.95;;;;;;;;;;5051921;28;20045;-67